createdAt,value
2018-08-14T00:00:30.249Z,86.00
2018-08-14T00:02:59.316Z,86.52
2018-08-14T00:05:29.462Z,87.07
2018-08-14T00:07:58.074Z,86.79
2018-08-14T00:10:26.959Z,86.80
2018-08-14T00:12:55.520Z,86.37
2018-08-14T00:15:24.247Z,85.30
2018-08-14T00:17:53.067Z,85.66
2018-08-14T00:20:22.618Z,85.48
2018-08-14T00:22:51.246Z,85.27
2018-08-14T00:25:19.920Z,85.44
2018-08-14T00:27:51.075Z,85.52
2018-08-14T00:30:21.189Z,85.50
2018-08-14T00:32:50.651Z,85.47
2018-08-14T00:35:19.666Z,85.69
2018-08-14T00:37:48.353Z,87.10
2018-08-14T00:40:19.238Z,86.62
2018-08-14T00:42:49.372Z,86.45
2018-08-14T00:45:19.836Z,85.79
2018-08-14T00:47:48.938Z,85.21
2018-08-14T00:50:17.864Z,84.77
2018-08-14T00:52:46.682Z,84.95
2018-08-14T00:55:16.872Z,87.54
2018-08-14T00:57:45.787Z,88.85
2018-08-14T01:00:20.253Z,89.79
2018-08-14T01:02:49.471Z,90.26
2018-08-14T01:05:18.506Z,89.93
2018-08-14T01:07:47.479Z,89.81
2018-08-14T01:10:16.949Z,89.78
2018-08-14T01:12:47.361Z,89.67
2018-08-14T01:15:17.404Z,89.09
2018-08-14T01:17:51.057Z,89.74
2018-08-14T01:20:21.133Z,89.27
2018-08-14T01:22:50.053Z,89.15
2018-08-14T01:25:19.429Z,89.22
2018-08-14T01:27:49.214Z,89.15
2018-08-14T01:30:20.387Z,89.52
2018-08-14T01:32:49.434Z,90.43
2018-08-14T01:35:18.631Z,91.16
2018-08-14T01:37:48.252Z,91.70
2018-08-14T01:40:17.242Z,91.59
2018-08-14T01:42:47.103Z,91.88
2018-08-14T01:45:16.146Z,91.57
2018-08-14T01:47:45.034Z,91.71
2018-08-14T01:50:18.744Z,91.94
2018-08-14T01:52:48.108Z,91.80
2018-08-14T01:55:17.636Z,91.84
2018-08-14T01:57:46.689Z,92.31
2018-08-14T02:00:15.280Z,91.80
2018-08-14T02:02:44.382Z,91.08
2018-08-14T02:05:13.350Z,91.18
2018-08-14T02:07:45.139Z,90.79
2018-08-14T02:10:15.623Z,91.91
2018-08-14T02:12:44.561Z,91.45
2018-08-14T02:15:15.004Z,91.40
2018-08-14T02:17:45.635Z,90.36
2018-08-14T02:20:18.374Z,90.25
2018-08-14T02:22:47.418Z,89.24
2018-08-14T02:25:17.737Z,87.74
2018-08-14T02:27:47.641Z,86.97
2018-08-14T02:30:16.882Z,87.29
2018-08-14T02:32:45.696Z,87.65
2018-08-14T02:35:14.403Z,87.92
2018-08-14T02:37:43.595Z,87.87
2018-08-14T02:40:20.042Z,89.24
2018-08-14T02:42:49.348Z,89.22
2018-08-14T02:45:18.583Z,89.63
2018-08-14T02:47:47.415Z,89.59
2018-08-14T02:50:17.361Z,89.18
2018-08-14T02:52:47.221Z,88.88
2018-08-14T02:55:19.494Z,87.33
2018-08-14T02:57:49.800Z,86.24
2018-08-14T03:00:23.777Z,85.86
2018-08-14T03:02:52.916Z,86.48
2018-08-14T03:05:22.351Z,86.39
2018-08-14T03:07:51.391Z,86.86
2018-08-14T03:10:20.067Z,86.91
2018-08-14T03:12:49.005Z,87.41
2018-08-14T03:15:19.221Z,86.81
2018-08-14T03:17:56.112Z,86.79
2018-08-14T03:20:24.758Z,87.22
2018-08-14T03:22:53.641Z,87.53
2018-08-14T03:25:22.517Z,88.73
2018-08-14T03:27:51.237Z,88.43
2018-08-14T03:30:19.941Z,88.13
2018-08-14T03:32:48.577Z,89.15
2018-08-14T03:35:17.837Z,90.20
2018-08-14T03:37:46.445Z,90.31
2018-08-14T03:40:19.928Z,90.21
2018-08-14T03:42:49.460Z,90.89
2018-08-14T03:45:18.572Z,90.59
2018-08-14T03:47:48.652Z,90.70
2018-08-14T03:50:17.557Z,90.02
2018-08-14T03:52:46.927Z,90.05
2018-08-14T03:55:17.241Z,90.44
2018-08-14T03:57:46.313Z,89.74
2018-08-14T04:00:16.725Z,89.83
2018-08-14T04:02:45.316Z,89.15
2018-08-14T04:05:14.486Z,88.57
2018-08-14T04:07:43.362Z,88.88
2018-08-14T04:10:12.950Z,89.29
2018-08-14T04:12:41.869Z,90.05
2018-08-14T04:15:12.464Z,90.02
2018-08-14T04:17:41.055Z,90.18
2018-08-14T04:20:11.073Z,90.65
2018-08-14T04:22:40.254Z,90.16
2018-08-14T04:25:09.811Z,90.32
2018-08-14T04:27:38.669Z,90.32
2018-08-14T04:30:09.088Z,90.56
2018-08-14T04:32:37.749Z,90.48
2018-08-14T04:35:06.908Z,89.65
2018-08-14T04:37:35.498Z,89.41
2018-08-14T04:40:05.251Z,90.28
2018-08-14T04:42:34.097Z,90.15
2018-08-14T04:45:02.889Z,90.14
2018-08-14T04:47:31.543Z,90.03
2018-08-14T04:50:00.179Z,89.88
2018-08-14T04:52:29.546Z,89.60
2018-08-14T04:54:58.153Z,88.89
2018-08-14T04:57:26.768Z,89.18
2018-08-14T04:59:56.488Z,88.80
2018-08-14T05:02:25.241Z,87.69
2018-08-14T05:04:54.359Z,87.74
2018-08-14T05:07:23.237Z,87.44
2018-08-14T05:09:51.861Z,87.08
2018-08-14T05:12:20.596Z,87.10
2018-08-14T05:14:49.600Z,88.04
2018-08-14T05:17:19.006Z,87.94
2018-08-14T05:19:47.894Z,88.07
2018-08-14T05:22:16.407Z,87.68
2018-08-14T05:24:45.277Z,87.60
2018-08-14T05:27:14.099Z,86.83
2018-08-14T05:29:42.725Z,86.80
2018-08-14T05:32:11.651Z,86.59
2018-08-14T05:34:40.763Z,86.68
2018-08-14T05:37:09.694Z,86.66
2018-08-14T05:39:38.328Z,86.82
2018-08-14T05:42:07.205Z,86.21
2018-08-14T05:44:35.818Z,85.92
2018-08-14T05:47:04.389Z,86.60
2018-08-14T05:49:33.289Z,86.97
2018-08-14T05:52:01.877Z,86.77
2018-08-14T05:54:30.529Z,86.89
2018-08-14T05:56:59.079Z,86.03
2018-08-14T05:59:27.684Z,86.64
2018-08-14T06:01:57.525Z,86.34
2018-08-14T06:04:26.326Z,85.85
2018-08-14T06:06:55.195Z,86.25
2018-08-14T06:09:24.386Z,85.61
2018-08-14T06:11:53.394Z,85.33
2018-08-14T06:14:22.996Z,85.16
2018-08-14T06:16:51.523Z,84.81
2018-08-14T06:19:20.125Z,85.92
2018-08-14T06:21:49.509Z,85.46
2018-08-14T06:24:18.335Z,84.67
2018-08-14T06:26:47.556Z,84.92
2018-08-14T06:29:16.164Z,85.58
2018-08-14T06:31:45.055Z,85.41
2018-08-14T06:34:14.035Z,84.44
2018-08-14T06:36:42.637Z,84.08
2018-08-14T06:39:14.265Z,83.75
2018-08-14T06:41:43.183Z,83.76
2018-08-14T06:44:12.002Z,83.17
2018-08-14T06:46:40.591Z,83.42
2018-08-14T06:49:09.436Z,82.12
2018-08-14T06:51:38.003Z,82.90
2018-08-14T06:54:06.923Z,82.26
2018-08-14T06:56:35.765Z,82.60
2018-08-14T06:59:04.422Z,81.71
2018-08-14T07:01:33.726Z,81.49
2018-08-14T07:04:02.355Z,81.38
2018-08-14T07:06:31.391Z,80.62
2018-08-14T07:08:59.990Z,81.70
2018-08-14T07:11:28.588Z,82.27
2018-08-14T07:13:57.194Z,82.48
2018-08-14T07:16:26.183Z,81.72
2018-08-14T07:18:55.377Z,81.77
2018-08-14T07:21:28.563Z,80.23
2018-08-14T07:23:57.777Z,80.79
2018-08-14T07:26:26.437Z,81.26
2018-08-14T07:28:55.406Z,79.83
2018-08-14T07:31:24.308Z,80.39
2018-08-14T07:33:52.853Z,78.71
2018-08-14T07:36:21.418Z,78.54
2018-08-14T07:38:50.761Z,79.61
2018-08-14T07:41:23.405Z,78.93
2018-08-14T07:43:53.730Z,79.43
2018-08-14T07:46:23.457Z,78.40
2018-08-14T07:48:52.432Z,78.32
2018-08-14T07:51:20.994Z,78.77
2018-08-14T07:53:50.710Z,78.19
2018-08-14T07:56:19.869Z,77.42
2018-08-14T07:58:48.505Z,76.02
2018-08-14T08:01:17.089Z,75.68
2018-08-14T08:03:45.609Z,74.98
2018-08-14T08:06:14.239Z,75.81
2018-08-14T08:08:43.141Z,74.87
2018-08-14T08:11:12.304Z,76.61
2018-08-14T08:13:41.860Z,76.67
2018-08-14T08:16:10.441Z,74.87
2018-08-14T08:18:39.019Z,75.89
2018-08-14T08:21:07.889Z,75.52
2018-08-14T08:23:37.045Z,75.02
2018-08-14T08:26:06.082Z,74.10
2018-08-14T08:28:34.930Z,74.99
2018-08-14T08:31:03.534Z,75.88
2018-08-14T08:33:33.120Z,74.35
2018-08-14T08:36:01.740Z,73.41
2018-08-14T08:38:30.291Z,75.41
2018-08-14T08:40:58.920Z,75.80
2018-08-14T08:43:28.136Z,74.96
2018-08-14T08:45:56.760Z,75.77
2018-08-14T08:48:26.620Z,74.39
2018-08-14T08:50:55.902Z,75.25
2018-08-14T08:53:24.435Z,75.95
2018-08-14T08:55:53.392Z,76.39
2018-08-14T08:58:22.259Z,75.93
2018-08-14T09:00:52.220Z,75.79
2018-08-14T09:03:20.759Z,75.67
2018-08-14T09:05:49.379Z,75.42
2018-08-14T09:08:18.795Z,75.33
2018-08-14T09:10:47.816Z,75.35
2018-08-14T09:13:18.418Z,74.34
2018-08-14T09:15:47.029Z,74.69
2018-08-14T09:18:15.657Z,74.66
2018-08-14T09:20:44.251Z,74.92
2018-08-14T09:23:13.599Z,74.63
2018-08-14T09:25:42.226Z,74.48
2018-08-14T09:28:10.836Z,75.18
2018-08-14T09:30:39.465Z,73.60
2018-08-14T09:33:08.495Z,73.76
2018-08-14T09:35:37.112Z,71.99
2018-08-14T09:38:06.152Z,72.68
2018-08-14T09:40:44.961Z,72.75
2018-08-14T09:43:13.695Z,72.33
2018-08-14T09:45:46.354Z,72.94
2018-08-14T09:48:15.008Z,73.84
2018-08-14T09:50:44.531Z,72.45
2018-08-14T09:53:13.119Z,72.12
2018-08-14T09:55:41.727Z,73.16
2018-08-14T09:58:11.569Z,73.17
2018-08-14T10:00:45.557Z,72.50
2018-08-14T10:03:21.061Z,72.75
2018-08-14T10:07:58.136Z,72.80
2018-08-14T10:10:26.756Z,76.52
2018-08-14T10:12:55.539Z,76.71
2018-08-14T10:15:24.121Z,78.25
2018-08-14T10:17:52.692Z,77.34
2018-08-14T10:20:24.679Z,76.55
2018-08-14T10:22:58.952Z,75.11
2018-08-14T10:25:33.421Z,73.88
2018-08-14T10:28:02.926Z,70.60
2018-08-14T10:30:32.325Z,71.48
2018-08-14T10:33:02.032Z,68.93
2018-08-14T10:35:31.010Z,68.36
2018-08-14T10:38:00.493Z,67.79
2018-08-14T10:40:29.275Z,69.05
2018-08-14T10:42:58.113Z,69.34
2018-08-14T10:45:26.671Z,68.84
2018-08-14T10:47:56.181Z,68.46
2018-08-14T10:50:25.691Z,67.42
2018-08-14T10:52:54.313Z,67.43
2018-08-14T10:55:22.944Z,67.08
2018-08-14T10:57:51.559Z,67.37
2018-08-14T11:00:23.380Z,66.90
2018-08-14T11:02:52.333Z,66.38
2018-08-14T11:05:22.256Z,66.20
2018-08-14T11:07:51.581Z,67.11
2018-08-14T11:10:23.396Z,67.12
2018-08-14T11:12:52.041Z,67.44
2018-08-14T11:15:20.672Z,66.75
2018-08-14T11:17:49.766Z,68.64
2018-08-14T11:20:20.897Z,68.65
2018-08-14T11:22:50.355Z,68.69
2018-08-14T11:25:19.206Z,69.25
2018-08-14T11:27:48.250Z,68.42
2018-08-14T11:30:24.709Z,68.07
2018-08-14T11:32:53.797Z,67.51
2018-08-14T11:35:23.452Z,67.01
2018-08-14T11:37:52.645Z,66.64
2018-08-14T11:40:21.940Z,66.24
2018-08-14T11:42:51.203Z,66.08
2018-08-14T11:45:23.129Z,65.48
2018-08-14T11:47:51.781Z,67.05
2018-08-14T11:50:21.018Z,67.09
2018-08-14T11:52:52.071Z,67.66
2018-08-14T11:55:21.961Z,68.14
2018-08-14T11:57:51.269Z,67.55
2018-08-14T12:00:24.700Z,67.02
2018-08-14T12:02:55.319Z,67.62
2018-08-14T12:05:24.033Z,68.31
2018-08-14T12:07:53.683Z,67.46
2018-08-14T12:10:23.181Z,67.08
2018-08-14T12:12:52.031Z,66.43
2018-08-14T12:15:20.614Z,64.69
2018-08-14T12:20:21.496Z,63.13
2018-08-14T12:22:50.129Z,62.87
2018-08-14T12:25:19.523Z,60.43
2018-08-14T12:27:49.300Z,60.17
2018-08-14T12:30:25.803Z,61.64
2018-08-14T12:32:56.385Z,62.00
2018-08-14T12:35:25.269Z,63.00
2018-08-14T12:37:53.857Z,63.78
2018-08-14T12:40:22.847Z,64.21
2018-08-14T12:42:51.396Z,64.14
2018-08-14T12:45:22.670Z,63.89
2018-08-14T12:47:52.365Z,62.05
2018-08-14T12:52:55.808Z,60.41
2018-08-14T12:55:25.251Z,60.63
2018-08-14T12:57:54.119Z,60.49
2018-08-14T13:00:29.720Z,61.14
2018-08-14T13:02:58.350Z,61.32
2018-08-14T13:05:27.993Z,61.22
2018-08-14T13:07:56.831Z,61.45
2018-08-14T13:10:25.452Z,61.62
2018-08-14T13:12:54.322Z,62.15
2018-08-14T13:15:23.824Z,60.12
2018-08-14T13:18:10.222Z,60.02
2018-08-14T13:20:39.381Z,57.83
2018-08-14T13:23:13.072Z,58.12
2018-08-14T13:25:43.260Z,57.14
2018-08-14T13:28:12.677Z,56.21
2018-08-14T13:30:41.613Z,56.78
2018-08-14T13:33:10.623Z,56.80
2018-08-14T13:35:39.229Z,54.11
2018-08-14T13:38:08.949Z,54.22
2018-08-14T13:40:37.632Z,50.81
2018-08-14T13:43:06.889Z,51.67
2018-08-14T13:45:36.166Z,50.26
2018-08-14T13:48:06.203Z,50.13
2018-08-14T13:50:34.688Z,50.09
2018-08-14T13:53:04.324Z,51.57
2018-08-14T13:55:33.147Z,51.85
2018-08-14T13:58:02.859Z,51.77
2018-08-14T14:00:31.670Z,51.54
2018-08-14T14:03:00.307Z,52.93
2018-08-14T14:05:28.875Z,52.33
2018-08-14T14:07:57.778Z,52.03
2018-08-14T14:10:26.734Z,53.20
2018-08-14T14:12:55.352Z,53.04
2018-08-14T14:15:25.395Z,54.84
2018-08-14T14:17:55.181Z,53.77
2018-08-14T14:20:26.519Z,55.71
2018-08-14T14:22:55.271Z,55.03
2018-08-14T14:25:23.929Z,56.66
2018-08-14T14:27:52.527Z,57.71
2018-08-14T14:30:21.888Z,56.29
2018-08-14T14:32:50.783Z,55.46
2018-08-14T14:35:19.377Z,55.83
2018-08-14T14:37:48.035Z,55.92
2018-08-14T14:40:20.243Z,55.24
2018-08-14T14:42:49.335Z,53.39
2018-08-14T14:45:18.659Z,52.65
2018-08-14T14:47:47.829Z,51.73
2018-08-14T14:50:16.439Z,52.28
2018-08-14T14:52:45.533Z,52.13
2018-08-14T14:55:16.170Z,51.12
2018-08-14T14:57:45.106Z,51.71
2018-08-14T15:00:19.469Z,52.11
2018-08-14T15:02:49.510Z,51.99
2018-08-14T15:05:18.197Z,52.31
2018-08-14T15:07:48.487Z,52.01
2018-08-14T15:10:17.489Z,51.42
2018-08-14T15:12:46.800Z,51.07
2018-08-14T15:15:15.477Z,49.12
2018-08-14T15:17:44.638Z,49.38
2018-08-14T15:20:15.431Z,48.62
2018-08-14T15:22:44.882Z,49.44
2018-08-14T15:25:16.074Z,50.63
2018-08-14T15:29:27.730Z,50.07
2018-08-14T15:31:59.707Z,50.04
2018-08-14T15:34:30.449Z,49.16
2018-08-14T15:37:00.981Z,48.14
2018-08-14T15:39:30.036Z,47.07
2018-08-14T15:41:59.906Z,47.69
2018-08-14T15:44:29.006Z,47.76
2018-08-14T15:46:58.692Z,47.16
2018-08-14T15:49:28.541Z,48.16
2018-08-14T15:51:56.992Z,48.83
2018-08-14T15:54:25.633Z,49.44
2018-08-14T15:56:54.601Z,50.31
2018-08-14T15:59:23.257Z,49.71
2018-08-14T16:01:52.036Z,48.79
2018-08-14T16:04:25.292Z,49.91
2018-08-14T16:06:56.438Z,49.70
2018-08-14T16:09:25.062Z,50.46
2018-08-14T16:11:53.655Z,49.73
2018-08-14T16:14:22.214Z,47.78
2018-08-14T16:16:50.798Z,46.00
2018-08-14T16:19:19.807Z,46.17
2018-08-14T16:21:48.367Z,45.38
2018-08-14T16:24:18.187Z,45.39
2018-08-14T16:26:46.916Z,45.08
2018-08-14T16:29:15.479Z,46.64
2018-08-14T16:31:44.830Z,46.67
2018-08-14T16:34:13.873Z,47.00
2018-08-14T16:36:42.486Z,47.76
2018-08-14T16:39:12.625Z,47.80
2018-08-14T16:41:42.017Z,47.24
2018-08-14T16:44:10.862Z,47.21
2018-08-14T16:46:39.543Z,48.38
2018-08-14T16:49:08.341Z,49.00
2018-08-14T16:51:36.950Z,49.38
2018-08-14T16:54:05.782Z,50.03
2018-08-14T16:56:34.616Z,49.23
2018-08-14T16:59:03.212Z,49.16
2018-08-14T17:01:31.896Z,50.51
2018-08-14T17:04:01.097Z,50.34
2018-08-14T17:06:29.775Z,49.88
2018-08-14T17:08:58.311Z,51.00
2018-08-14T17:11:27.556Z,50.82
2018-08-14T17:13:56.651Z,50.68
2018-08-14T17:16:26.564Z,50.90
2018-08-14T17:18:55.247Z,50.59
2018-08-14T17:24:00.304Z,51.18
2018-08-14T17:26:29.833Z,51.44
2018-08-14T17:28:59.637Z,52.37
2018-08-14T17:31:28.586Z,53.78
2018-08-14T17:33:57.725Z,53.97
2018-08-14T17:36:27.084Z,54.41
2018-08-14T17:38:55.665Z,54.47
2018-08-14T17:41:24.266Z,54.09
2018-08-14T17:43:52.888Z,54.89
2018-08-14T17:46:21.494Z,55.34
2018-08-14T17:48:51.140Z,55.65
2018-08-14T17:51:21.013Z,55.26
2018-08-14T17:53:50.576Z,55.22
2018-08-14T17:56:19.606Z,56.07
2018-08-14T17:58:50.607Z,56.72
2018-08-14T18:01:20.483Z,56.21
2018-08-14T18:03:49.253Z,56.69
2018-08-14T18:06:17.927Z,57.21
2018-08-14T18:08:46.521Z,57.33
2018-08-14T18:11:23.899Z,58.65
2018-08-14T18:13:53.576Z,59.07
2018-08-14T18:16:22.201Z,59.83
2018-08-14T18:18:51.802Z,59.92
2018-08-14T18:21:20.770Z,60.67
2018-08-14T18:23:49.632Z,60.50
2018-08-14T18:26:18.727Z,60.72
2018-08-14T18:28:48.113Z,61.21
2018-08-14T18:31:16.727Z,62.45
2018-08-14T18:33:45.340Z,62.31
2018-08-14T18:36:15.912Z,63.13
2018-08-14T18:38:44.804Z,63.53
2018-08-14T18:41:13.843Z,63.71
2018-08-14T18:43:42.865Z,63.73
2018-08-14T18:46:11.957Z,63.73
2018-08-14T18:48:44.507Z,64.59
2018-08-14T18:51:13.492Z,64.21
2018-08-14T18:53:46.391Z,64.95
2018-08-14T18:56:15.382Z,65.98
2018-08-14T18:58:44.157Z,65.68
2018-08-14T19:01:12.718Z,65.66
2018-08-14T19:03:45.304Z,66.28
2018-08-14T19:06:13.990Z,66.92
2018-08-14T19:08:42.686Z,67.36
2018-08-14T19:11:13.332Z,67.19
2018-08-14T19:13:41.924Z,67.73
2018-08-14T19:16:11.349Z,67.79
2018-08-14T19:18:39.927Z,67.82
2018-08-14T19:21:09.314Z,67.83
2018-08-14T19:23:37.965Z,68.72
2018-08-14T19:26:06.799Z,69.75
2018-08-14T19:28:35.339Z,69.48
2018-08-14T19:31:03.938Z,69.74
2018-08-14T19:33:32.477Z,70.26
2018-08-14T19:36:01.777Z,70.75
2018-08-14T19:38:31.112Z,70.19
2018-08-14T19:41:00.461Z,71.45
2018-08-14T19:43:29.412Z,70.85
2018-08-14T19:45:58.274Z,70.75
2018-08-14T19:48:26.896Z,70.42
2018-08-14T19:50:55.471Z,70.56
2018-08-14T19:53:25.582Z,70.62
2018-08-14T19:55:54.153Z,70.75
2018-08-14T19:58:23.107Z,70.64
2018-08-14T20:00:51.747Z,70.55
2018-08-14T20:03:20.459Z,70.94
2018-08-14T20:05:49.014Z,71.22
2018-08-14T20:08:17.647Z,71.27
2018-08-14T20:10:46.506Z,71.41
2018-08-14T20:13:16.533Z,71.88
2018-08-14T20:15:52.548Z,71.94
2018-08-14T20:18:21.517Z,72.84
2018-08-14T20:20:50.615Z,73.13
2018-08-14T20:23:19.583Z,73.16
2018-08-14T20:25:48.811Z,74.68
2018-08-14T20:28:17.653Z,75.35
2018-08-14T20:30:46.780Z,75.86
2018-08-14T20:33:15.412Z,76.18
2018-08-14T20:35:44.588Z,76.53
2018-08-14T20:38:13.464Z,76.90
2018-08-14T20:40:42.080Z,75.81
2018-08-14T20:43:10.686Z,75.87
2018-08-14T20:45:39.904Z,76.03
2018-08-14T20:48:09.299Z,75.76
2018-08-14T20:50:37.974Z,75.26
2018-08-14T20:53:06.777Z,75.73
2018-08-14T20:55:36.621Z,75.61
2018-08-14T20:58:05.230Z,75.76
2018-08-14T21:00:33.977Z,75.94
2018-08-14T21:03:02.991Z,75.78
2018-08-14T21:05:31.852Z,75.90
2018-08-14T21:08:02.072Z,76.59
2018-08-14T21:10:31.144Z,76.24
2018-08-14T21:13:01.584Z,76.52
2018-08-14T21:15:35.327Z,77.78
2018-08-14T21:18:04.976Z,77.44
2018-08-14T21:20:33.564Z,77.69
2018-08-14T21:23:02.556Z,77.90
2018-08-14T21:25:31.407Z,77.92
2018-08-14T21:27:59.976Z,77.94
2018-08-14T21:30:29.459Z,77.75
2018-08-14T21:32:58.098Z,77.62
2018-08-14T21:35:27.325Z,78.26
2018-08-14T21:37:55.944Z,78.18
2018-08-14T21:40:24.520Z,78.53
2018-08-14T21:42:54.096Z,78.60
2018-08-14T21:45:23.130Z,78.05
2018-08-14T21:47:52.040Z,78.33
2018-08-14T21:50:21.816Z,79.06
2018-08-14T21:52:50.706Z,78.76
2018-08-14T21:55:19.613Z,79.21
2018-08-14T21:57:48.175Z,79.19
2018-08-14T22:00:29.996Z,79.60
2018-08-14T22:02:58.858Z,79.72
2018-08-14T22:05:27.466Z,79.87
2018-08-14T22:07:56.438Z,79.52
2018-08-14T22:10:25.628Z,79.74
2018-08-14T22:12:54.184Z,79.70
2018-08-14T22:15:23.246Z,80.00
2018-08-14T22:17:52.090Z,79.86
2018-08-14T22:20:20.705Z,79.86
2018-08-14T22:22:50.216Z,80.05
2018-08-14T22:25:19.101Z,79.67
2018-08-14T22:27:47.658Z,79.56
2018-08-14T22:30:16.653Z,80.40
2018-08-14T22:32:47.045Z,80.55
2018-08-14T22:35:15.658Z,82.18
2018-08-14T22:37:44.215Z,81.92
2018-08-14T22:40:12.786Z,81.86
2018-08-14T22:42:41.358Z,82.02
2018-08-14T22:45:11.156Z,82.91
2018-08-14T22:47:40.741Z,82.57
2018-08-14T22:50:10.077Z,82.34
2018-08-14T22:52:38.828Z,83.26
2018-08-14T22:55:09.029Z,83.29
2018-08-14T22:57:38.053Z,83.03
2018-08-14T23:00:08.076Z,82.84
2018-08-14T23:02:36.585Z,82.01
2018-08-14T23:05:05.904Z,81.77
2018-08-14T23:07:34.548Z,81.75
2018-08-14T23:10:03.961Z,81.29
2018-08-14T23:12:33.010Z,81.14
2018-08-14T23:15:01.855Z,80.75
2018-08-14T23:17:30.451Z,80.28
2018-08-14T23:19:59.372Z,80.31
2018-08-14T23:22:28.316Z,80.20
2018-08-14T23:24:56.939Z,79.80
2018-08-14T23:27:25.527Z,79.34
2018-08-14T23:29:54.420Z,79.84
2018-08-14T23:32:22.978Z,79.88
2018-08-14T23:34:51.550Z,79.54
2018-08-14T23:37:21.828Z,79.75
2018-08-14T23:39:50.373Z,80.49
2018-08-14T23:42:18.924Z,80.66
2018-08-14T23:44:47.473Z,80.91
2018-08-14T23:47:16.334Z,80.45
2018-08-14T23:49:44.906Z,80.37
2018-08-14T23:52:13.909Z,79.99
2018-08-14T23:54:42.734Z,79.15
2018-08-14T23:57:11.518Z,79.37
2018-08-14T23:59:40.152Z,79.14
